Tiempo atmosférico en la estación meteorológica de Villardeciervos, Zamora (850 m.)



Fecha
DESCASC
Temp. máxima en grados centígrados (hora)
DESCASC
Temp. mínima en grados centígrados (hora)
DESCASC
Temp. media en grados centígrados
DESCASC
Racha de viento máxima en m/sg (hora)
DESCASC
Velocidad máxima media en intervalos de 10 minutos(hora)
DESCASC
Precipitaciones diarias en mm
DESCASC
Precipitaciones de 00:00 a 06:00 en mm
DESCASC
Precipitaciones de 06:00 a 12:00 en mm
DESCASC
Precipitaciones de 12:00 a 18:00 en mm
DESCASC
Precipitaciones de 18:00 a 24:00 en mm
DESCASC
27-01-2020 9.7 (15:40) 4.9 (05:50) 7.3 16.67 (19:00) 8.89 (12:30) 11.8 0.2 5 2.8 3.8
26-01-2020 7.2 (15:20) -2.3 (06:50) 2.4 10.28 (13:10) 6.11 (13:10) 0 0 0 0 0
25-01-2020 7 (17:10) 0.3 (00:00) 3.7 4.72 (17:00) 2.5 (16:50) 0 0 0 0 0
24-01-2020 5.9 (14:30) 2.2 (00:00) 4.1 4.44 (09:20) 1.39 (15:00) 1.4 1 0 0.4 0
23-01-2020 8.6 (16:30) 0.8 (00:00) 4.7 6.67 (15:30) 3.33 (16:10) 0 0 0 0 0
22-01-2020 9 (16:40) 1.6 (00:00) 5.3 13.33 (00:30) 5.83 (00:20) 0.4 0 0.4 0 0
21-01-2020 7.5 (17:40) -2.6 (-00:0) 2.5 15.28 (18:10) 6.67 (17:40) 0.2 0 0 0.2 0
20-01-2020 6.4 (14:40) -3.8 (-00:0) 1.3 14.72 (14:10) 7.5 (13:20) 0 0 0 0 0
19-01-2020 9.1 (15:00) -2 (-00:0) 3.6 20.56 (13:30) 9.17 (14:40) 0 0 0 0 0
18-01-2020 9.4 (16:30) 2.5 (00:00) 5.9 18.33 (16:20) 7.78 (16:20) 3.6 0 1.8 1.6 0.2
17-01-2020 7.9 (15:00) 3.1 (00:00) 5.5 16.94 (02:40) 8.06 (02:40) 2.2 2.2 0 0 0
16-01-2020 10.8 (12:50) 6.4 (00:00) 8.6 18.06 (11:30) 8.61 (14:40) 3.8 0.2 0 0.2 3.4
15-01-2020 10.8 (17:40) 5.1 (00:00) 8 19.44 (08:50) 10.83 (08:50) 7.4 2 4.8 0 0.6
14-01-2020 8.4 (15:50) 2.8 (00:00) 5.6 14.72 (22:10) 6.39 (20:50) 0.2 0 0 0 0.2
13-01-2020 6 (15:50) -5.9 (-00:0) 0 12.78 (16:40) 6.67 (16:50) 0 0 0 0 0
12-01-2020 0.8 (16:10) -5.4 (06:20) -2.3 3.06 (14:30) 1.67 (06:10) 0 0 0 0 0
11-01-2020 12.2 (16:20) -5.8 (-00:0) 3.2 3.89 (16:40) 2.5 (18:00) 0 0 0 0 0
10-01-2020 10.1 (14:00) -4.1 (-00:0) 3 7.5 (13:50) 3.61 (14:50) 0 0 0 0 0
09-01-2020 10 (12:50) -1.2 (-00:0) 4.4 13.61 (16:40) 7.78 (12:50) 0 0 0 0 0
08-01-2020 15 (16:00) -4.8 (-00:0) 5.1 3.33 (14:00) 1.67 (21:00) 0 0 0 0 0
07-01-2020 10.7 (15:50) -5.6 (-00:0) 2.5 3.61 (13:40) 1.67 (16:30) 0 0 0 0 0
06-01-2020 3.7 (16:30) -7 (-00:0) -1.6 4.17 (14:20) 2.22 (14:10) 0 0 0 0 0
05-01-2020 11.6 (16:10) -2.5 (-00:0) 4.6 4.72 (15:30) 2.5 (15:20) 0 0 0 0 0
04-01-2020 3.4 (13:50) 0.9 (00:00) 2.2 5 (18:50) 2.5 (18:50) 0 0 0 0 0
03-01-2020 5.9 (17:30) -2.1 (-00:0) 1.9 4.44 (00:10) 2.5 (06:30) 0 0 0 0 0
02-01-2020 10.5 (15:50) -6.5 (-00:0) 2 6.67 (16:30) 3.61 (16:00) 0 0 0 0 0
01-01-2020 14.7 (15:20) -5.4 (-00:0) 4.6 5 (18:00) 2.78 (18:00) 0 0 0 0 0
31-12-2019 16.6 (16:20) -3.7 (-00:0) 6.5 3.06 (07:10) 1.94 (07:20) 0 0 0 0 0
30-12-2019 20.1 (16:10) -3.6 (-00:0) 8.3 2.5 (18:30) 1.67 (20:40) 0 0 0 0 0

Gráficas

Temp. máximas Temp. mínimas Temp. medias Precipitaciones Rachas de viento máximas Velocidades máximas media en intervalos de 10 minutos

Datos horarios

Fecha y hora oficial Temperatura (ºC) Velocidad del viento (km/h) Dirección del viento Racha (km/h) Dirección de racha Precipitación (mm) Presión (hPa) Tendencia (hPa) Humedad (%)
2020-01-28 23:00:00 9.9 17 Sudoeste 29 Oeste 0 923 0.5 90
2020-01-28 22:00:00 9.6 9 Oeste 28 Sudoeste 0 922.8 0.5 90
2020-01-28 21:00:00 9.7 15 Sudoeste 24 Sudoeste 0.4 922.6 0.5 89
2020-01-28 20:00:00 9.5 11 Sudoeste 22 Sudoeste 0 922.5 0.8 90
2020-01-28 19:00:00 9.6 14 Sudoeste 26 Oeste 0.2 922.3 0.2 89
2020-01-28 18:00:00 9.5 8 Oeste 22 Oeste 0.4 922.1 0 91
2020-01-28 17:00:00 10 8 Sudoeste 19 Sudoeste 0 921.7 -1.1 88
2020-01-28 16:00:00 9.9 12 Oeste 24 Sudoeste 0.2 922.1 -1.1 87
2020-01-28 15:00:00 9.5 13 Oeste 28 Sudoeste 0 922.1 -1.1 87
2020-01-28 14:00:00 9.1 11 Oeste 26 Sudoeste 0 922.8 -0.1 87
2020-01-28 13:00:00 9.2 14 Sudoeste 26 Sudoeste 0 923.2 1 84
2020-01-28 12:00:00 9.2 14 Sudoeste 34 Sudoeste 0 923.2 1.6 82
2020-01-28 11:00:00 8.6 10 Oeste 29 Oeste 0 922.9 1.5 82
2020-01-28 10:00:00 8 13 Oeste 33 Sudoeste 0 922.2 1.3 83
2020-01-28 09:00:00 7.6 20 Sudoeste 36 Sudoeste 0 921.6 1.3 85
2020-01-28 08:00:00 7.6 15 Sudoeste 27 Sur 0 921.4 0.8 86
2020-01-28 07:00:00 7.5 13 Sur 32 Sudoeste 0 920.9 0.3 86
2020-01-28 06:00:00 7.8 17 Sudoeste 33 Sudoeste 0 920.3 0 86
2020-01-28 05:00:00 8.3 13 Sudoeste 23 Oeste 0 920.6 0.5 86
2020-01-28 04:00:00 8.5 15 Sudoeste 35 Sudoeste 0 920.6 0.6 87
2020-01-28 03:00:00 8.7 18 Oeste 43 Oeste 0 920.3 0.8 89
2020-01-28 02:00:00 8.6 18 Sudoeste 31 Sudoeste 0.2 920.1 0.7 90
2020-01-28 01:00:00 8.3 21 Sudoeste 42 Sudoeste 0.2 920 0.4 90
2020-01-28 00:00:00 8 23 Sudoeste 50 Sudoeste 1.2 919.5 -0.2 90
2020-01-27 23:00:00 7.8 23 Sudoeste 54 Sur 1.4 919.4 -0.3 90
2020-01-27 22:00:00 7.6 27 Sudoeste 53 Sur 1 919.6 0.3 88
2020-01-27 21:00:00 7.4 21 Sudoeste 46 Sudoeste 0.2 919.7 0.7 88
2020-01-27 20:00:00 7.3 23 Sudoeste 46 Sudoeste 0 919.7 0.7 85
2020-01-27 19:00:00 7.5 26 Oeste 60 Sudoeste 0 919.3 0.3 79
2020-01-27 18:00:00 8.2 24 Sudoeste 54 Oeste 0.2 919 -0.5 80
2020-01-27 17:00:00 9.1 14 Sudoeste 44 Sudoeste 0 919 -1.1 82
2020-01-27 16:00:00 9.2 22 Oeste 57 Sudoeste 0 919 -1.3 82
2020-01-27 15:00:00 9.4 22 Oeste 42 Sudoeste 0 919.5 -0.6 82
2020-01-27 14:00:00 8.1 19 Sudoeste 53 Sudoeste 1.2 920.1 -0.1 89
2020-01-27 13:00:00 7.7 17 Sudoeste 60 Sur 1.4 920.3 -0.4 89
2020-01-27 12:00:00 7.4 31 Sudoeste 59 Sudoeste 1.6 920.1 -0.7 88
2020-01-27 11:00:00 6.5 16 Sur 49 Sudoeste 0.8 920.2 -0.8 90
2020-01-27 10:00:00 6.1 19 Sudoeste 41 Sudoeste 0.2 920.7 -0.2 90
2020-01-27 09:00:00 5.5 21 Sudoeste 44 Sur 1.2 920.8 -0.7 90
2020-01-27 08:00:00 5.5 20 Sudoeste 41 Sur 0.6 921 -1.1 90
2020-01-27 07:00:00 5.1 21 Sudoeste 42 Sur 0.6 920.9 -1.6 90
2020-01-27 06:00:00 4.9 18 Sudoeste 40 Sur 0.2 921.5 -1.8 89
2020-01-27 05:00:00 5.5 13 Sur 38 Sur 0 922.1 -1.9 85
2020-01-27 04:00:00 5.8 16 Sudoeste 36 Sudoeste 0 922.5 -1.7 84
2020-01-27 03:00:00 5.6 12 Sudoeste 27 Oeste 0 923.3 -1.1 86
2020-01-27 02:00:00 5.5 12 Sudoeste 29 Sudoeste 0 924 -0.3 86
2020-01-27 01:00:00 5.7 19 Sudoeste 37 Oeste 0 924.2 0.2 86
2020-01-27 00:00:00 5.2 12 Sudoeste 28 Sur 0 924.4 -0.2 87
2020-01-26 23:00:00 5.4 14 Sudoeste 35 Sudoeste 0 924.3 0.2 86
2020-01-26 22:00:00 5.4 16 Sudoeste 33 Sudoeste 0 924 0 84
2020-01-26 21:00:00 6 12 Oeste 31 Sudoeste 0 924.6 1 82
2020-01-26 20:00:00 5.4 5 Sur 17 Sudoeste 0 924.1 0.4 84
2020-01-26 19:00:00 5.6 8 Sudoeste 17 Sudoeste 0 924 0.3 82
2020-01-26 18:00:00 6 11 Sudoeste 22 Sudoeste 0 923.6 -0.1 81
2020-01-26 17:00:00 6.2 12 Sudoeste 31 Sudoeste 0 923.7 -0.2 78
2020-01-26 16:00:00 6.4 14 Sudoeste 27 Sudoeste 0 923.7 -0.4 76
2020-01-26 15:00:00 6.6 14 Sudoeste 30 Sudoeste 0 923.7 -0.4 74
2020-01-26 14:00:00 5.9 14 Sudoeste 37 Sudoeste 0 923.9 -0.1 77
2020-01-26 13:00:00 6.7 19 Sudoeste 36 Oeste 0 924.1 0.3 72
2020-01-26 12:00:00 5.6 11 Sudoeste 23 Oeste 0 924.1 0.9 78
2020-01-26 11:00:00 2.6 3 Norte 8 Sudeste 0 924 1.7 94
2020-01-26 10:00:00 -0.9 3 Sur 6 Sudoeste 0 923.8 1.9 95
2020-01-26 09:00:00 -2.1 4 Sur 7 Sudeste 0 923.2 1.8 95
2020-01-26 08:00:00 -1.9 2 Este 7 Norte 0 922.3 1.1 94
2020-01-26 07:00:00 -2.2 3 Nordeste 10 Oeste 0 921.9 0.7 94
2020-01-26 06:00:00 -1.8 3 Este 7 Este 0 921.4 0.6 94
2020-01-26 05:00:00 -1.6 3 Norte 9 Nordeste 0 921.2 0.8 94
2020-01-26 04:00:00 -1.4 3 Nordeste 9 Este 0 921.2 0.6 94
2020-01-26 03:00:00 -0.8 2 Norte 10 Sur 0 920.8 0.3 94
2020-01-26 02:00:00 0.2 3 Sur 10 Sur 0 920.4 0.2 94
2020-01-26 01:00:00 0 6 Sudeste 9 Sur 0 920.6 0.6 94
2020-01-26 00:00:00 0.3 4 Sudeste 12 Sudeste 0 920.5 0.6 93
2020-01-25 23:00:00 0.8 5 Sur 12 Sur 0 920.2 0.9 91
2020-01-25 22:00:00 1.8 3 Sur 9 Sudoeste 0 920 1.2 91
2020-01-25 21:00:00 2.4 4 Sur 6 Sudoeste 0 919.9 1.6 90
2020-01-25 20:00:00 3.4 2 Sudoeste 9 Sudoeste 0 919.3 1.5 89
2020-01-25 19:00:00 4.3 4 Sudoeste 5 Sudoeste 0 918.8 1 84
2020-01-25 18:00:00 5.7 2 Sudoeste 14 Sudeste 0 918.3 0.4 80
2020-01-25 17:00:00 6.9 9 Sudeste 17 Sudeste 0 917.8 -0.6 77
2020-01-25 16:00:00 6.6 3 Norte 11 Norte 0 917.8 -1.3 81
2020-01-25 15:00:00 6.7 5 Este 13 Nordeste 0 917.9 -1.6 77
2020-01-25 14:00:00 6 4 Nordeste 9 Nordeste 0 918.4 -0.8 85
2020-01-25 13:00:00 5.1 4 Este 12 Este 0 919.1 0.1 90
2020-01-25 12:00:00 4.6 5 Este 14 Este 0 919.5 0.8 91
2020-01-25 11:00:00 4.4 6 Este 13 Este 0 919.2 0.8 92
2020-01-25 10:00:00 4.1 2 Sudeste 5 Sudeste 0 919 0.9 93
2020-01-25 09:00:00 3.6 3 Sudoeste 4 Sudoeste 0 918.7 0.4 93
2020-01-25 08:00:00 3.6 0 Calma 4 Oeste 0 918.4 0 93
2020-01-25 07:00:00 3.5 0 Calma 9 Este 0 918.1 -0.6 93
2020-01-25 06:00:00 3.6 2 Nordeste 5 Nordeste 0 918.3 -0.8 93
2020-01-25 05:00:00 3.6 2 Norte 8 Norte 0 918.4 -1.2 93
2020-01-25 04:00:00 3.7 4 Norte 8 Norte 0 918.7 -1.3 93
2020-01-25 03:00:00 3.8 2 Norte 5 Norte 0 919.1 -1 93
2020-01-25 02:00:00 3.8 3 Norte 6 Este 0 919.6 -0.7 93
2020-01-25 01:00:00 3.8 0 Calma 5 Norte 0 920 -0.4 93
2020-01-25 00:00:00 3.8 3 Este 8 Este 0 920.1 -0.5 93
2020-01-24 23:00:00 3.6 0 Calma 7 Sudoeste 0 920.3 -0.3 93
2020-01-24 22:00:00 3.1 0 Calma 5 Noroeste 0 920.4 0 92
2020-01-24 21:00:00 3.3 2 Noroeste 5 Noroeste 0 920.6 0.3 90
2020-01-24 20:00:00 4.4 0 Calma 5 Sudeste 0 920.6 0.5 91
2020-01-24 19:00:00 4.9 0 Calma 5 Norte 0 920.4 0.3 89
2020-01-24 18:00:00 5.3 0 Calma 6 Este 0.4 920.3 0 88
2020-01-24 17:00:00 5.4 4 Este 10 Este 0 920.1 -0.9 88
2020-01-24 16:00:00 5.6 5 Este 10 Este 0 920.1 -1.6 84
2020-01-24 15:00:00 5.8 5 Este 9 Este 0 920.3 -1.6 83
2020-01-24 14:00:00 5.7 3 Norte 9 Este 0 921 -0.8 85
2020-01-24 13:00:00 5 4 Norte 7 Este 0 921.7 0.1 86
2020-01-24 12:00:00 4.8 0 Calma 6 Este 0 921.9 0.9 87
2020-01-24 11:00:00 3.9 4 Este 8 Sudeste 0 921.8 1 91
2020-01-24 10:00:00 3.2 3 Norte -- -- 0 921.6 1.1 93
2020-01-24 09:00:00 3 0 Calma 5 Sudoeste 0 921 0.6 92
2020-01-24 08:00:00 2.9 3 Sur 5 Sudoeste 0 920.8 0.4 93
2020-01-24 07:00:00 3 0 Calma 5 Noroeste 0 920.5 -0.2 92
2020-01-24 06:00:00 3.1 0 Calma 4 Sur 0.2 920.4 -0.4 92
2020-01-24 05:00:00 3.1 3 Sur 6 Sudoeste 0.4 920.4 -0.3 92
2020-01-24 04:00:00 2.9 3 Sur 5 Sur 0.2 920.7 0 92
2020-01-24 03:00:00 2.7 3 Sur 4 Sur 0.2 920.8 0.3 91
2020-01-24 02:00:00 2.6 0 Calma 3 Sur 0 920.7 0.1 90
2020-01-24 01:00:00 2.3 0 Calma 4 Sudeste 0 920.7 0.5 89
2020-01-24 00:00:00 2.3 3 Sur 9 Sudoeste 0 920.5 0.4 90
2020-01-23 23:00:00 1 2 Sudeste 4 Sudeste 0 920.6 1.2 89
2020-01-23 22:00:00 1.1 2 Sudoeste 4 Sur 0 920.2 1.4 89
2020-01-23 21:00:00 0.9 2 Sur 5 Sur 0 920.1 1.5 85
2020-01-23 20:00:00 2.4 0 Calma 9 Sudoeste 0 919.4 0.6 80
2020-01-23 19:00:00 4.5 3 Noroeste 8 Este 0 918.8 0.3 75
2020-01-23 18:00:00 6.9 6 Este 20 Este 0 918.6 -0.3 66
2020-01-23 17:00:00 7.6 8 Nordeste 24 Este 0 918.8 -0.9 63
2020-01-23 16:00:00 8.5 10 Nordeste 24 Nordeste 0 918.5 -1.8 61
2020-01-23 15:00:00 7.1 9 Este 23 Nordeste 0 918.9 -2 66
2020-01-23 14:00:00 7 9 Nordeste 21 Este 0 919.7 -1.1 65
2020-01-23 13:00:00 4.7 8 Este 20 Este 0 920.3 -0.1 75
2020-01-23 12:00:00 4.5 10 Este 19 Este 0 920.9 0.7 77
2020-01-23 11:00:00 3 9 Este 20 Este 0 920.8 1.3 82
2020-01-23 10:00:00 2.5 7 Nordeste 18 Este 0 920.4 1.2 84
2020-01-23 09:00:00 2.5 8 Nordeste 15 Nordeste 0 920.2 1 85
2020-01-23 08:00:00 2.5 8 Este 17 Este 0 919.5 0.1 85
2020-01-23 07:00:00 2.7 6 Nordeste 16 Este 0 919.2 -0.6 85
2020-01-23 06:00:00 2.5 5 Este 14 Este 0 919.2 -0.7 87
2020-01-23 05:00:00 2.4 2 Este 9 Este 0 919.4 -0.7 88
2020-01-23 04:00:00 2.3 3 Nordeste 8 Este 0 919.8 -0.6 87
2020-01-23 03:00:00 2.4 3 Nordeste 10 Nordeste 0 919.9 -0.6 87
2020-01-23 02:00:00 2.7 3 Este 12 Nordeste 0 920.1 0 86
2020-01-23 01:00:00 3.3 4 Nordeste 11 Este 0 920.4 0.3 85
2020-01-23 00:00:00 3.7 3 Nordeste 17 Nordeste 0 920.5 0.6 83
2020-01-22 23:00:00 4.1 8 Nordeste 20 Nordeste 0 920.1 0.5 82
2020-01-22 22:00:00 3.2 7 Este 16 Este 0 920.1 0.6 85
2020-01-22 21:00:00 3.3 2 Sur 8 Nordeste 0 919.9 0.5 80
2020-01-22 20:00:00 4.5 3 Nordeste 5 Nordeste 0 919.6 0.1 77
2020-01-22 19:00:00 5.6 3 Sur 11 Nordeste 0 919.5 -0.2 73
2020-01-22 18:00:00 7.2 6 Este 22 Sudeste 0 919.4 -0.7 66
2020-01-22 17:00:00 8.3 12 Este 34 Este 0 919.5 -1.5 61
2020-01-22 16:00:00 8.2 13 Este 32 Este 0 919.7 -2.1 62
2020-01-22 15:00:00 8.5 14 Este 31 Este 0 920.1 -2.3 63
2020-01-22 14:00:00 7.1 14 Nordeste 33 Este 0 921 -1.5 70
2020-01-22 13:00:00 6.3 13 Nordeste 34 Nordeste 0 921.8 -0.8 77
2020-01-22 12:00:00 5.3 11 Nordeste 29 Este 0 922.4 0.3 83
2020-01-22 11:00:00 4.3 7 Nordeste 21 Nordeste 0 922.5 0.7 90
2020-01-22 10:00:00 3.7 9 Nordeste 28 Nordeste 0.4 922.6 1 89
2020-01-22 09:00:00 3.3 4 Este 14 Este 0 922.1 0.3 88
2020-01-22 08:00:00 3 5 Nordeste 14 Nordeste 0 921.8 -0.2 87
2020-01-22 07:00:00 3 5 Nordeste 20 Sudeste 0 921.6 0 84
2020-01-22 06:00:00 2.6 8 Este 22 Nordeste 0 921.8 0.4 84
2020-01-22 05:00:00 2 10 Este 23 Este 0 922 0.2 83
2020-01-22 04:00:00 2 6 Sudeste 20 Este 0 921.6 -0.2 78
2020-01-22 03:00:00 3 10 Este 33 Este 0 921.4 0.3 70
2020-01-22 02:00:00 3.9 15 Este 35 Este 0 921.8 0.6 65
2020-01-22 01:00:00 5.3 18 Nordeste 48 Este 0 921.8 0.3 57
2020-01-22 00:00:00 6.3 19 Nordeste 50 Nordeste 0 921.1 -1.1 57
2020-01-21 23:00:00 6.5 21 Nordeste 49 Nordeste 0 921.2 -1.3 58
2020-01-21 22:00:00 6.4 17 Nordeste 45 Este 0 921.5 -0.7 59
2020-01-21 21:00:00 6 16 Nordeste 39 Este 0 922.2 0.2 61
2020-01-21 20:00:00 5.1 14 Nordeste 33 Nordeste 0 922.5 1 66
2020-01-21 19:00:00 5.8 11 Nordeste 55 Este 0 922.2 0.6 70
2020-01-21 18:00:00 7 18 Este 47 Este 0 922 -0.5 62
2020-01-21 17:00:00 7 18 Nordeste 38 Nordeste 0 921.5 -1.9 60
2020-01-21 16:00:00 7.3 10 Nordeste 42 Nordeste 0 921.6 -2.9 63
2020-01-21 15:00:00 5.2 12 Nordeste 33 Nordeste 0 922.5 -2.8 72
2020-01-21 14:00:00 3.8 7 Nordeste 44 Este 0.2 923.4 -2.5 79
2020-01-21 13:00:00 4.8 12 Nordeste 49 Nordeste 0 924.5 -1.9 60
2020-01-21 12:00:00 4.9 13 Nordeste 41 Este 0 925.3 -1.3 57
2020-01-21 11:00:00 3.1 14 Este 26 Este 0 925.9 -0.3 66
2020-01-21 10:00:00 0.4 5 Nordeste 17 Sudeste 0 926.4 0.3 74
2020-01-21 09:00:00 -0.6 6 Este 16 Sudeste 0 926.6 -0.1 77
2020-01-21 08:00:00 -1.5 4 Nordeste 12 Sudeste 0 926.2 -0.9 80
2020-01-21 07:00:00 -1.6 2 Este 15 Este 0 926.1 -1.6 77
2020-01-21 06:00:00 -1.3 5 Sudeste 11 Sudeste 0 926.7 -1.5 76
2020-01-21 05:00:00 -1.7 7 Sudeste 12 Este 0 927.1 -1.2 77
2020-01-21 04:00:00 -2.1 5 Este 14 Nordeste 0 927.7 -1.3 79
2020-01-21 03:00:00 -2.5 5 Este 11 Este 0 928.2 -1 80
2020-01-21 02:00:00 -2.2 4 Nordeste 15 Este 0 928.3 -1 76
2020-01-21 01:00:00 -1.9 4 Nordeste 14 Este 0 929 0 72
2020-01-21 00:00:00 -1.2 3 Nordeste 22 Este 0 929.2 0.6 68
2020-01-20 23:00:00 0.3 10 Este 26 Nordeste 0 929.3 1.1 61
2020-01-20 22:00:00 1.3 10 Nordeste 28 Nordeste 0 929 1.2 55
2020-01-20 21:00:00 2.2 10 Nordeste 29 Nordeste 0 928.6 1 52
2020-01-20 20:00:00 2.6 9 Nordeste 26 Nordeste 0 928.2 0.5 49
2020-01-20 19:00:00 2.7 9 Nordeste 31 Nordeste 0 927.8 0.4 49
2020-01-20 18:00:00 2.9 14 Nordeste 38 Este 0 927.6 0.2 48
2020-01-20 17:00:00 3.1 17 Este 36 Este 0 927.7 -0.4 45
2020-01-20 16:00:00 3.8 19 Este 46 Este 0 927.4 -1.3 40
2020-01-20 15:00:00 6.2 22 Nordeste 53 Este 0 927.4 -2.1 29
2020-01-20 14:00:00 5.7 22 Nordeste 52 Este 0 928.1 -1.9 31
2020-01-20 13:00:00 5 18 Nordeste 49 Nordeste 0 928.7 -0.9 38
2020-01-20 12:00:00 3.6 18 Nordeste 51 Nordeste 0 929.5 0.2 45
2020-01-20 11:00:00 2 13 Este 26 Este 0 930 0.9 55
2020-01-20 10:00:00 -0.6 6 Nordeste 17 Este 0 929.6 0.5 66
2020-01-20 09:00:00 -3.7 6 Nordeste 13 Norte 0 929.3 -0.3 79
2020-01-20 08:00:00 -3.5 5 Nordeste 18 Norte 0 929.1 -0.7 76
2020-01-20 07:00:00 -2.8 9 Norte 15 Norte 0 929.1 -1.2 74
2020-01-20 06:00:00 -1.7 6 Nordeste 17 Este 0 929.6 -1.3 69
2020-01-20 05:00:00 -2 5 Nordeste 17 Este 0 929.8 -1.5 70
2020-01-20 04:00:00 -2.3 8 Norte 15 Nordeste 0 930.3 -1.3 72
2020-01-20 03:00:00 -1.6 4 Nordeste 12 Nordeste 0 930.9 -0.7 69
2020-01-20 02:00:00 -0.6 4 Este 27 Nordeste 0 931.3 -0.1 64
2020-01-20 01:00:00 -0.1 9 Nordeste 26 Nordeste 0 931.6 0.3 60
2020-01-20 00:00:00 0.4 9 Nordeste 32 Nordeste 0 931.6 0.1 58
2020-01-19 23:00:00 0 9 Nordeste 31 Nordeste 0 931.4 0 57
2020-01-19 22:00:00 0.2 16 Norte 33 Nordeste 0 931.3 0.1 54
2020-01-19 21:00:00 0.4 15 Norte 31 Nordeste 0 931.5 0.7 54
2020-01-19 20:00:00 1.9 12 Nordeste 36 Nordeste 0 931.4 1.2 45
2020-01-19 19:00:00 3 13 Nordeste 42 Nordeste 0 931.2 1.8 40
2020-01-19 18:00:00 5 15 Nordeste 49 Nordeste 0 930.8 1.5 40
2020-01-19 17:00:00 7.1 18 Nordeste 55 Nordeste 0 930.2 1 36
2020-01-19 16:00:00 8.5 23 Nordeste 58 Nordeste 0 929.4 0.2 31
2020-01-19 15:00:00 9.1 21 Nordeste 72 Norte 0 929.3 -0.4 32
2020-01-19 14:00:00 8.7 29 Nordeste 74 Norte 0 929.2 0 34
2020-01-19 13:00:00 8.1 20 Nordeste 63 Norte 0 929.2 0.6 37
2020-01-19 12:00:00 7.1 21 Nordeste 60 Norte 0 929.7 2.2 48
2020-01-19 11:00:00 6.2 18 Nordeste 54 Nordeste 0 929.2 2.7 57
2020-01-19 10:00:00 4.7 12 Nordeste 41 Norte 0 928.6 3.2 62
2020-01-19 09:00:00 3.2 17 Nordeste 41 Norte 0 927.5 3.2 72
2020-01-19 08:00:00 1.8 9 Nordeste 20 Norte 0 926.5 2.3 88
2020-01-19 07:00:00 -1.6 0 Calma 7 Nordeste 0 925.4 1.4 93
2020-01-19 06:00:00 -1.4 4 Sudoeste 10 Sudeste 0 924.3 0.4 93
2020-01-19 05:00:00 -1.4 3 Sur 8 Sur 0 924.2 0.4 92
2020-01-19 04:00:00 -0.7 4 Sur 9 Sur 0 924 0.6 92
2020-01-19 03:00:00 -0.2 5 Sudoeste 8 Sudoeste 0 923.9 0.8 92
2020-01-19 02:00:00 0 4 Sur 7 Sur 0 923.8 1.5 90
2020-01-19 01:00:00 1.7 3 Sur 8 Sur 0 923.4 0.9 88
2020-01-19 00:00:00 2.8 3 Sudoeste 23 Sudoeste 0 923.1 0.9 85
2020-01-18 23:00:00 3.9 14 Oeste 27 Sudoeste 0 922.3 0.3 85
2020-01-18 22:00:00 4.6 15 Oeste 40 Oeste 0 922.5 0.9 83
2020-01-18 21:00:00 4.1 14 Sudoeste 35 Sudoeste 0 922.2 0.7 81
2020-01-18 20:00:00 4.4 16 Sudoeste 35 Oeste 0 922 1.5 75
2020-01-18 19:00:00 5.3 19 Sudoeste 40 Sudoeste 0.2 921.6 1.6 68
2020-01-18 18:00:00 6.8 20 Oeste 53 Noroeste 0 921.5 1.1 73
2020-01-18 17:00:00 8.8 24 Oeste 66 Oeste 0.2 920.5 -1.2 83
2020-01-18 16:00:00 9.1 20 Oeste 54 Sudoeste 0.2 920 -3.8 87
2020-01-18 15:00:00 7.9 15 Sudoeste 44 Sudoeste 0 920.4 -4.6 93
2020-01-18 14:00:00 7.3 21 Sudoeste 41 Sudoeste 0.6 921.7 -4 90
2020-01-18 13:00:00 6.8 19 Sudoeste 35 Sudoeste 0.6 923.8 -2.6 89
2020-01-18 12:00:00 6.7 16 Sudoeste 28 Sudoeste 0.2 925 -1.5 91
2020-01-18 11:00:00 4.3 3 Sudeste 10 Noroeste 0.4 925.7 -1.4 92
2020-01-18 10:00:00 3.5 7 Noroeste 15 Noroeste 0.2 926.4 -1.1 92
2020-01-18 09:00:00 3.3 3 Noroeste 12 Noroeste 0.2 926.5 -1.4 91
2020-01-18 08:00:00 3.5 3 Norte 8 Norte 0.6 927.1 -1.4 90
2020-01-18 07:00:00 3.8 3 Norte 12 Sudoeste 0.2 927.5 -1.2 88
2020-01-18 06:00:00 4.3 8 Sudoeste 14 Sudoeste 0 927.9 -2 81
2020-01-18 05:00:00 3.1 3 Sudoeste 8 Sudoeste 0 928.5 -2 87
2020-01-18 04:00:00 2.9 2 Sudeste 10 Norte 0 928.7 -2.1 87
2020-01-18 03:00:00 2.6 0 Calma 5 Sudeste 0 929.9 -1.1 86
2020-01-18 02:00:00 2.7 0 Calma 4 Sur 0 930.5 -0.8 84
2020-01-18 01:00:00 2.9 3 Sudeste 9 Sudeste 0 930.8 -1.1 83
2020-01-18 00:00:00 3.1 6 Sudoeste 9 Sudoeste 0 931 -0.8 82
2020-01-17 23:00:00 3.7 2 Norte 10 Oeste 0 931.3 -1.1 79
2020-01-17 22:00:00 4.8 7 Oeste 12 Sudoeste 0 931.9 -0.1 71
2020-01-17 21:00:00 4.9 4 Sur 18 Sudoeste 0 931.8 0.5 72
2020-01-17 20:00:00 5.3 11 Sudoeste 19 Sudoeste 0 932.4 1.2 68
2020-01-17 19:00:00 5 8 Sudoeste 21 Sudoeste 0 932 1 68
2020-01-17 18:00:00 5.7 8 Sur 26 Sudoeste 0 931.3 0.5 64
2020-01-17 17:00:00 6.6 15 Sudoeste 31 Sudoeste 0 931.2 0.2 62
2020-01-17 16:00:00 7.3 13 Sudoeste 29 Sudoeste 0 931 -0.1 57
2020-01-17 15:00:00 7.8 11 Sudoeste 29 Sudoeste 0 930.8 -0.4 55
2020-01-17 14:00:00 7.1 9 Sudoeste 35 Sudoeste 0 931 0.7 59
2020-01-17 13:00:00 6.7 13 Sudoeste 36 Sudoeste 0 931.1 1.5 63
2020-01-17 12:00:00 6.6 17 Sudoeste 33 Sudoeste 0 931.2 1.9 70
2020-01-17 11:00:00 6 17 Sudoeste 37 Sudoeste 0 930.3 1.9 75
2020-01-17 10:00:00 4.7 14 Sudoeste 33 Sudoeste 0 929.6 2.3 78
2020-01-17 09:00:00 3.8 15 Oeste 29 Oeste 0 929.3 2.9 83
2020-01-17 08:00:00 4.4 17 Oeste 31 Sudoeste 0 928.4 2.6 85
2020-01-17 07:00:00 4.6 13 Sudoeste 36 Oeste 0 927.3 1.7 84
2020-01-17 06:00:00 4.9 17 Oeste 39 Sudoeste 0 926.4 0.9 84
2020-01-17 05:00:00 5.5 14 Sudoeste 30 Oeste 0 925.8 1 87
2020-01-17 04:00:00 5.3 9 Oeste 36 Oeste 1.2 925.6 0.6 87
2020-01-17 03:00:00 6.3 18 Sudoeste 61 Sudoeste 0.2 925.5 1.3 88
2020-01-17 02:00:00 6.3 23 Sudoeste 42 Sudoeste 0.8 924.8 1.3 86
2020-01-17 01:00:00 6.5 11 Sudoeste 35 Sudoeste 0 925 1.2 86
2020-01-17 00:00:00 6.5 17 Sudoeste 40 Sudoeste 0 924.2 1.1 87
2020-01-16 23:00:00 6.7 16 Sudoeste 45 Sudoeste 0 923.5 1 84
2020-01-16 22:00:00 7.1 18 Sudoeste 45 Sudoeste 0 923.8 1.8 85
2020-01-16 21:00:00 7.3 22 Sudoeste 50 Sudoeste 1 923.1 1.6 87
2020-01-16 20:00:00 7.3 23 Sur 55 Sudoeste 1.4 922.5 1 84
2020-01-16 19:00:00 7.5 17 Sur 50 Sudoeste 1 922 0.2 82
2020-01-16 18:00:00 8.8 25 Sur 53 Sur 0.2 921.5 -0.6 71
2020-01-16 17:00:00 9.4 23 Sur 53 Sudoeste 0 921.5 -1.3 67
2020-01-16 16:00:00 9.8 22 Sur 63 Sudoeste 0 921.8 -2.4 65
2020-01-16 15:00:00 10.1 26 Sur 59 Sur 0 922.1 -2.6 65
2020-01-16 14:00:00 10.4 23 Sur 51 Sudoeste 0 922.8 -1.9 66
2020-01-16 13:00:00 10.4 29 Sudoeste 58 Sur 0 924.2 -0.1 65
2020-01-16 12:00:00 9.8 25 Sur 65 Sudoeste 0 924.7 0.6 73
2020-01-16 11:00:00 9.2 24 Sur 55 Sur 0 924.7 0.7 80
2020-01-16 10:00:00 8.7 23 Sur 54 Sudoeste 0 924.3 0.4 85
2020-01-16 09:00:00 8.9 23 Sur 46 Sudoeste 0 924.1 0.3 85
2020-01-16 08:00:00 8.9 19 Sur 42 Sur 0 924 -0.1 84
2020-01-16 07:00:00 8.9 17 Sur 50 Sudoeste 0 923.9 -0.6 86
2020-01-16 06:00:00 8.9 25 Sur 53 Sur 0 923.8 -0.9 85
2020-01-16 05:00:00 8.8 21 Sur 54 Sur 0 924.1 -0.7 86
2020-01-16 04:00:00 8.7 15 Sur 41 Sur 0.2 924.5 -0.6 89
2020-01-16 03:00:00 8.8 19 Sur 44 Sur 0 924.7 -0.3 88
2020-01-16 02:00:00 8.8 18 Sur 42 Sudoeste 0 924.8 0 89
2020-01-16 01:00:00 8.8 18 Sur 41 Sur 0 925.1 0.3 88
2020-01-16 00:00:00 8.9 18 Sur 39 Sudoeste 0 925 0.3 89
2020-01-15 23:00:00 8.9 19 Sur 41 Sur 0 924.8 0.3 89
2020-01-15 22:00:00 8.8 15 Sur 36 Sudoeste 0 924.8 0.6 90
2020-01-15 21:00:00 8.9 13 Sur 31 Sudeste 0.6 924.7 0.9 89
2020-01-15 20:00:00 8.9 6 Sur 16 Sur 0 924.5 1.2 88
2020-01-15 19:00:00 8.5 7 Sudoeste 15 Oeste 0 924.2 1.4 84
2020-01-15 18:00:00 9.9 8 Sudoeste 28 Sudoeste 0 923.8 1.1 77
2020-01-15 17:00:00 10.5 13 Sudoeste 31 Sudoeste 0 923.3 0.8 72
2020-01-15 16:00:00 9.7 15 Sudoeste 30 Sur 0 922.8 0.2 78
2020-01-15 15:00:00 9 13 Sudoeste 28 Sudoeste 0 922.7 0.1 81
2020-01-15 14:00:00 8.3 10 Sur 26 Sudoeste 0 922.5 0.8 84
2020-01-15 13:00:00 8 11 Sudoeste 37 Sudoeste 0 922.6 1.8 82
2020-01-15 12:00:00 7.5 20 Sudoeste 39 Oeste 0 922.6 2.6 84
2020-01-15 11:00:00 6.3 10 Sudoeste 46 Oeste 0.2 921.7 3.7 85
2020-01-15 10:00:00 5.1 17 Sudoeste 45 Oeste 3 920.8 3.3 85
2020-01-15 09:00:00 6.8 25 Sudoeste 70 Sudoeste 1.4 920 2.5 85
2020-01-15 08:00:00 6.9 23 Sur 53 Sur 0 918 0.6 87
2020-01-15 07:00:00 6.9 25 Sur 51 Sudoeste 0.2 917.5 -0.3 88
2020-01-15 06:00:00 6.8 23 Sur 52 Sur 0.4 917.5 -0.4 89
2020-01-15 05:00:00 6.9 26 Sur 61 Sudoeste 0.4 917.4 -0.7 88
2020-01-15 04:00:00 6.8 26 Sur 62 Sur 0.4 917.8 -0.7 88
2020-01-15 03:00:00 6.8 23 Sur 62 Sudoeste 0.4 917.9 -1.1 88
2020-01-15 02:00:00 6.4 24 Sur 58 Sudoeste 0.2 918.1 -1 89
2020-01-15 01:00:00 6.1 24 Sur 50 Sur 0.2 918.5 -1.1 89
2020-01-15 00:00:00 5.7 21 Sur 43 Sudoeste 0 919 -0.2 90
2020-01-14 23:00:00 5.3 21 Sur 53 Sur 0 919.1 -0.5 90
2020-01-14 22:00:00 5.4 22 Sudoeste 50 Sudoeste 0 919.6 -0.1 89
2020-01-14 21:00:00 5.3 21 Sur 48 Sudoeste 0.2 919.2 -0.4 89
2020-01-14 20:00:00 5.8 18 Sur 40 Sudoeste 0 919.6 0.1 84
2020-01-14 19:00:00 5.8 11 Sur 27 Sudoeste 0 919.7 0.2 81
2020-01-14 18:00:00 6.4 18 Sur 39 Sur 0 919.6 -0.4 78
2020-01-14 17:00:00 7.2 14 Sur 33 Sur 0 919.5 -0.9 74
2020-01-14 16:00:00 7.8 12 Sudoeste 33 Sudoeste 0 919.5 -2 72
2020-01-14 15:00:00 8 18 Sudoeste 35 Sudoeste 0 920 -2.1 70
2020-01-14 14:00:00 6.6 11 Sudoeste 29 Sudoeste 0 920.4 -1.5 80
2020-01-14 13:00:00 5.3 13 Sudoeste 30 Sudoeste 0 921.5 -0.1 82
2020-01-14 12:00:00 4.9 12 Sudoeste 26 Sudoeste 0 922.1 0.7 83
2020-01-14 11:00:00 4.4 15 Sur 26 Sudoeste 0 921.9 0.6 82
2020-01-14 10:00:00 3.7 15 Sudoeste 22 Sudoeste 0 921.6 0.4 84
2020-01-14 09:00:00 3.5 13 Sudoeste 23 Sudoeste 0 921.4 0.2 84
2020-01-14 08:00:00 3.2 12 Sudoeste 21 Sudoeste 0 921.3 -0.3 84
2020-01-14 07:00:00 2.8 8 Sudoeste 16 Oeste 0 921.2 -0.7 87
2020-01-14 06:00:00 3.2 11 Sudoeste 26 Sudoeste 0 921.2 -0.7 85
2020-01-14 05:00:00 3 12 Sudoeste 26 Sudoeste 0 921.6 -0.8 86
2020-01-14 04:00:00 2.9 9 Sudoeste 31 Sudoeste 0 921.9 -1 88
2020-01-14 03:00:00 3 12 Sudoeste 30 Sudoeste 0 921.9 -1.1 88
2020-01-14 02:00:00 3 14 Sudoeste 26 Sudoeste 0 922.4 -0.5 88
2020-01-14 01:00:00 2.9 7 Oeste 21 Sudoeste 0 922.9 -0.5 89
2020-01-14 00:00:00 2.8 11 Sudoeste 30 Sudoeste 0 923 -0.6 88
2020-01-13 23:00:00 3.2 16 Sudoeste 31 Sudoeste 0 922.9 -0.2 83
2020-01-13 22:00:00 2.9 5 Sudoeste 21 Oeste 0 923.4 0.3 81
2020-01-13 21:00:00 2.4 12 Oeste 31 Oeste 0 923.6 0.8 82
2020-01-13 20:00:00 1.4 6 Oeste 17 Oeste 0 923.1 0.2 84
2020-01-13 19:00:00 2 7 Oeste 24 Sudoeste 0 923.1 0.2 81
2020-01-13 18:00:00 3.4 17 Sudoeste 41 Sur 0 922.8 -0.9 75
2020-01-13 17:00:00 5 22 Sudoeste 46 Sudoeste 0 922.9 -1.7 68
2020-01-13 16:00:00 6 21 Sudoeste 37 Sudoeste 0 922.9 -2.8 59
2020-01-13 15:00:00 5.1 19 Sudoeste 32 Sudoeste 0 923.7 -2.7 67
2020-01-13 14:00:00 4.6 13 Sudoeste 30 Sudoeste 0 924.6 -2.4 77
2020-01-13 13:00:00 0.4 3 Este 8 Nordeste 0 925.7 -0.8 94
2020-01-13 12:00:00 -2 0 Calma 8 Sudeste 0 926.4 0 94
2020-01-13 11:00:00 -3.5 3 Norte 12 Sur 0 927 0.5 94
2020-01-13 10:00:00 -4.9 0 Calma 5 Sudeste 0 926.5 0 93
2020-01-13 09:00:00 -5.3 2 Nordeste 8 Sur 0 926.4 -0.1 93
2020-01-13 08:00:00 -5.8 4 Sudeste 9 Sudeste 0 926.5 -0.9 92
2020-01-13 07:00:00 -5.4 0 Calma 13 Sudeste 0 926.5 -1.3 93
2020-01-13 06:00:00 -5.5 4 Sur 9 Sur 0 926.5 -1.8 93
2020-01-13 05:00:00 -4.9 6 Sur 10 Sudeste 0 927.4 -1.5 93
2020-01-13 04:00:00 -5.1 2 Sur 8 Sur 0 927.8 -2.1 93
2020-01-13 03:00:00 -4.6 0 Calma 8 Sudeste 0 928.3 -2 94
2020-01-13 02:00:00 -4.2 0 Calma 8 Sur 0 928.9 -1.6 94
2020-01-13 01:00:00 -3.9 5 Sur 8 Sudeste 0 929.9 -0.8 94
2020-01-13 00:00:00 -3.3 2 Sur 6 Sudeste 0 930.3 -1 94
2020-01-12 23:00:00 -3 3 Sudoeste 6 Sur 0 930.5 -0.7 94
2020-01-12 22:00:00 -2.7 2 Oeste 9 Oeste 0 930.7 -0.5 94
2020-01-12 21:00:00 -1.9 4 Noroeste 9 Noroeste 0 931.3 0.3 94
2020-01-12 20:00:00 -1.6 0 Calma 5 Sudeste 0 931.2 0.2 94
2020-01-12 19:00:00 -1 3 Sur 6 Sur 0 931.2 0.2 93
2020-01-12 18:00:00 -0.4 3 Este 9 Norte 0 931 -0.1 93
2020-01-12 17:00:00 0.5 4 Nordeste 10 Este 0 931 -0.5 92
2020-01-12 16:00:00 0.6 4 Nordeste 9 Este 0 931 -1.6 91
2020-01-12 15:00:00 0.4 2 Nordeste 11 Norte 0 931.1 -2.5 91
2020-01-12 14:00:00 -0.3 3 Este 7 Este 0 931.5 -2 92
2020-01-12 13:00:00 -1.3 3 Nordeste 7 Nordeste 0 932.6 -0.4 93
2020-01-12 12:00:00 -2.5 2 Norte 7 Noroeste 0 933.6 1.1 94
2020-01-12 11:00:00 -3.3 2 Nordeste 8 Nordeste 0 933.5 1.3 94
2020-01-12 10:00:00 -4.2 2 Nordeste 4 Nordeste 0 933 1.2 94
2020-01-12 09:00:00 -4.5 3 Norte 9 Norte 0 932.5 1.1 94
2020-01-12 08:00:00 -4.3 4 Sudeste 6 Sudeste 0 932.2 0.4 94
2020-01-12 07:00:00 -5.1 4 Este 9 Norte 0 931.8 0.2 93
2020-01-12 06:00:00 -5.1 4 Norte 9 Norte 0 931.4 -0.2 90
2020-01-12 05:00:00 -4.9 5 Sur 7 Sudeste 0 931.8 0.4 90
2020-01-12 04:00:00 -4 0 Calma 3 Sudoeste 0 931.6 0 91
2020-01-12 03:00:00 -3.8 3 Sudeste 5 Nordeste 0 931.6 -0.2 90
2020-01-12 02:00:00 -3.4 2 Sur 5 Sur 0 931.4 -0.7 89
2020-01-12 01:00:00 -2.7 3 Sur 5 Noroeste 0 931.6 -0.3 89
2020-01-12 00:00:00 -1.9 0 Calma 9 Sur 0 931.8 -0.1 86
2020-01-11 23:00:00 -0.9 6 Sur 8 Sur 0 932.1 0 90
2020-01-11 22:00:00 -0.7 0 Calma 6 Oeste 0 931.9 0.2 83
2020-01-11 21:00:00 1.4 3 Este 6 Este 0 931.9 0.6 81
2020-01-11 20:00:00 3.1 4 Sudeste 11 Sur 0 932.1 0.8 75
2020-01-11 19:00:00 4.5 7 Sur 14 Sudoeste 0 931.7 0.5 67
2020-01-11 18:00:00 7.4 9 Sudoeste 14 Sudoeste 0 931.3 -0.1 55
2020-01-11 17:00:00 10.4 7 Sudoeste 14 Sudoeste 0 931.3 -0.7 46
2020-01-11 16:00:00 11.6 3 Norte 10 Norte 0 931.2 -2 49
2020-01-11 15:00:00 10.6 5 Noroeste 10 Nordeste 0 931.4 -2.7 54
2020-01-11 14:00:00 9 4 Oeste 9 Noroeste 0 932 -2.1 58
2020-01-11 13:00:00 6.8 4 Noroeste 9 Norte 0 933.2 -0.4 66
2020-01-11 12:00:00 5.5 3 Noroeste 6 Norte 0 934.1 0.8 71
2020-01-11 11:00:00 2.4 2 Sudeste 4 Sudeste 0 934.1 0.6 78
2020-01-11 10:00:00 -2.8 0 Calma 5 Sur 0 933.6 0.3 91
2020-01-11 09:00:00 -5.5 3 Noroeste 6 Noroeste 0 933.3 -0.1 91
2020-01-11 08:00:00 -5.6 2 Sudeste 6 Norte 0 933.5 0 91
2020-01-11 07:00:00 -5.5 3 Sudoeste 6 Sudeste 0 933.3 -0.3 90
2020-01-11 06:00:00 -5 0 Calma 7 Sudeste 0 933.4 -0.4 90
2020-01-11 05:00:00 -4.7 3 Sudeste 5 Sudeste 0 933.5 0 91
2020-01-11 04:00:00 -4.6 3 Sur 4 Sur 0 933.6 -0.2 90
2020-01-11 03:00:00 -4.5 2 Sur 4 Sudeste 0 933.8 -0.1 88
2020-01-11 02:00:00 -4 3 Sur 5 Sudeste 0 933.5 -0.2 88
2020-01-11 01:00:00 -3.2 2 Sudoeste 5 Nordeste 0 933.8 0.4 89
2020-01-11 00:00:00 -2.9 2 Sudeste 4 Noroeste 0 933.9 1 87
2020-01-10 23:00:00 -2.3 0 Calma 5 Sur 0 933.7 1.1 88
2020-01-10 22:00:00 -2 3 Sur 4 Sur 0 933.4 1.2 84
2020-01-10 21:00:00 -0.8 2 Sudoeste 9 Sudeste 0 932.9 0.8 79
2020-01-10 20:00:00 1 5 Oeste 8 Noroeste 0 932.6 1 73
2020-01-10 19:00:00 3.9 0 Calma 8 Sudoeste 0 932.2 1 64
2020-01-10 18:00:00 6.9 4 Nordeste 18 Nordeste 0 932.1 1.1 53
2020-01-10 17:00:00 8.9 11 Este 22 Este 0 931.6 0.2 45
2020-01-10 16:00:00 9.7 11 Este 26 Nordeste 0 931.2 -0.2 43
2020-01-10 15:00:00 9.9 9 Nordeste 26 Norte 0 931 -1.4 44
2020-01-10 14:00:00 10.1 10 Nordeste 27 Norte 0 931.4 -0.7 44
2020-01-10 13:00:00 8.6 8 Este 16 Este 0 931.4 0.1 48
2020-01-10 12:00:00 7.5 3 Norte 9 Norte 0 932.4 1.5 54
2020-01-10 11:00:00 3.6 2 Sur 10 Sudeste 0 932.1 1.5 71
2020-01-10 10:00:00 -1.2 2 Sur 9 Sudeste 0 931.3 1.2 88
2020-01-10 09:00:00 -3.7 2 Sur 11 Sudoeste 0 930.9 1.5 88
2020-01-10 08:00:00 -3.2 2 Sudoeste 10 Sudeste 0 930.6 1.4 87
2020-01-10 07:00:00 -3.2 6 Sur 13 Este 0 930.1 0.9 87
2020-01-10 06:00:00 -3 6 Sur 11 Sudeste 0 929.4 0.5 86
2020-01-10 05:00:00 -2.3 7 Sur 17 Sur 0 929.2 0.7 87
2020-01-10 04:00:00 -2.8 3 Sur 8 Este 0 929.2 0.5 86
2020-01-10 03:00:00 -1.3 3 Norte 13 Sudoeste 0 928.9 0.1 82
2020-01-10 02:00:00 -0.2 6 Sur 13 Sudoeste 0 928.5 0 80
2020-01-10 01:00:00 -0.4 7 Sudoeste 11 Sur 0 928.7 0.8 83
2020-01-10 00:00:00 0.2 3 Sur 9 Sur 0 928.8 1.9 79
2020-01-09 23:00:00 2.9 4 Noroeste 22 Oeste 0 928.5 1.3 69
2020-01-09 22:00:00 4.6 12 Oeste 28 Oeste 0 927.9 1 65
2020-01-09 21:00:00 5.2 15 Oeste 30 Oeste 0 926.9 0.8 65
2020-01-09 20:00:00 6.7 12 Oeste 42 Oeste 0 927.2 1.6 63
2020-01-09 19:00:00 6.6 5 Sudoeste 19 Oeste 0 926.9 1.7 77
2020-01-09 18:00:00 8.1 7 Oeste 40 Oeste 0 926.1 1.1 74
2020-01-09 17:00:00 8.5 22 Sudoeste 49 Sudoeste 0 925.6 0.2 83
2020-01-09 16:00:00 7.9 12 Sudoeste 35 Sudoeste 0 925.2 -1.7 87
2020-01-09 15:00:00 7.8 9 Sudoeste 32 Sudoeste 0 925 -2.7 88
2020-01-09 14:00:00 7.9 14 Sudoeste 38 Sudoeste 0 925.4 -2.5 84
2020-01-09 13:00:00 9.9 28 Sudoeste 48 Sudoeste 0 926.9 -0.6 81
2020-01-09 12:00:00 8.1 18 Sudoeste 44 Sudoeste 0 927.7 0.2 87
2020-01-09 11:00:00 8.9 22 Sudoeste 46 Sudoeste 0 927.9 0.5 83
2020-01-09 10:00:00 1.6 3 Sudeste 8 Nordeste 0 927.5 -0.3 94
2020-01-09 09:00:00 -0.5 4 Sudeste 10 Sur 0 927.5 0 92
2020-01-09 08:00:00 -1.1 5 Oeste 9 Oeste 0 927.4 -0.6 91
2020-01-09 07:00:00 -0.6 4 Norte 8 Noroeste 0 927.8 -0.5 89
2020-01-09 06:00:00 -0.4 5 Sur 9 Sudeste 0 927.5 -1.2 88
2020-01-09 05:00:00 -0.5 5 Este 8 Sur 0 928 -0.7 87
2020-01-09 04:00:00 -0.5 4 Sur 9 Sur 0 928.3 -1 86
2020-01-09 03:00:00 -0.8 4 Sur 10 Sur 0 928.7 -1 84
2020-01-09 02:00:00 -0.1 7 Sur 13 Noroeste 0 928.7 -1.3 86
2020-01-09 01:00:00 -0.7 3 Este 8 Noroeste 0 929.3 -0.7 84
2020-01-09 00:00:00 -0.4 3 Sudeste 5 Sur 0 929.7 -0.1 82
2020-01-08 23:00:00 0 5 Sur 7 Sudeste 0 930 0 79
2020-01-08 22:00:00 1.3 3 Sur 6 Sudoeste 0 930 0.1 79
2020-01-08 21:00:00 2.4 6 Sur 7 Sur 0 929.8 -0.1 72
2020-01-08 20:00:00 4.1 5 Sur 6 Sur 0 930 0.1 67
2020-01-08 19:00:00 6.3 5 Sur 7 Sur 0 929.9 -0.1 58
2020-01-08 18:00:00 10.3 0 Calma 5 Sudoeste 0 929.9 -0.4 48
2020-01-08 17:00:00 13.9 3 Oeste 7 Noroeste 0 929.9 -1 39
2020-01-08 16:00:00 15 2 Noroeste 8 Noroeste 0 930 -1.7 33
2020-01-08 15:00:00 14.2 4 Nordeste 12 Este 0 930.3 -2.1 35
2020-01-08 14:00:00 12.7 5 Este 12 Nordeste 0 930.9 -1.9 47
2020-01-08 13:00:00 11 4 Este 9 Este 0 931.7 -1 45
2020-01-08 12:00:00 7.5 0 Calma 5 Norte 0 932.4 0 64
2020-01-08 11:00:00 3.2 2 Norte 5 Noroeste 0 932.8 0.5 81
2020-01-08 10:00:00 -1.3 0 Calma 7 Sur 0 932.7 0.5 92
2020-01-08 09:00:00 -3.4 4 Sur 8 Sur 0 932.4 0 93
2020-01-08 08:00:00 -4.7 2 Sudeste 8 Sur 0 932.3 -0.3 91
2020-01-08 07:00:00 -4.6 0 Calma 4 Norte 0 932.2 -0.3 90
2020-01-08 06:00:00 -4.4 3 Norte 5 Noroeste 0 932.4 -0.1 91
2020-01-08 05:00:00 -4.2 3 Este 4 Sudeste 0 932.6 0 91
2020-01-08 04:00:00 -4.1 2 Noroeste 6 Sudeste 0 932.5 -0.2 90
2020-01-08 03:00:00 -3.6 0 Calma 6 Sur 0 932.5 -0.4 90
2020-01-08 02:00:00 -3.1 3 Noroeste 7 Sudeste 0 932.6 -0.5 90
2020-01-08 01:00:00 -2.8 0 Calma 4 Sur 0 932.7 -0.6 90
2020-01-08 00:00:00 -2.4 2 Sudoeste 3 Sudeste 0 932.9 -0.3 91
2020-01-07 23:00:00 -2.2 3 Sur 5 Sur 0 933.1 -0.1 89
2020-01-07 22:00:00 -1.6 2 Sur 6 Sudeste 0 933.3 0.6 89
2020-01-07 21:00:00 -0.9 3 Norte 7 Sur 0 933.2 0.6 85
2020-01-07 20:00:00 0.8 0 Calma 5 Sudoeste 0 933.2 0.6 80
2020-01-07 19:00:00 2.9 2 Sur 4 Sudeste 0 932.7 0.2 75
2020-01-07 18:00:00 6.9 0 Calma 6 Norte 0 932.6 -0.1 62
2020-01-07 17:00:00 10.5 3 Nordeste 11 Noroeste 0 932.6 -0.8 50
2020-01-07 16:00:00 10.6 5 Norte 11 Norte 0 932.5 -1.5 44
2020-01-07 15:00:00 9.5 5 Nordeste 10 Este 0 932.7 -1.9 44
2020-01-07 14:00:00 8 4 Nordeste 13 Norte 0 933.4 -1.1 53
2020-01-07 13:00:00 6.4 3 Nordeste 6 Norte 0 934 -0.4 70
2020-01-07 12:00:00 2.5 2 Nordeste 5 Nordeste 0 934.6 0.6 84
2020-01-07 11:00:00 -1.1 0 Calma 6 Noroeste 0 934.5 1 91
2020-01-07 10:00:00 -3.6 0 Calma 5 Sur 0 934.4 1 93
2020-01-07 09:00:00 -5.6 3 Sudeste 5 Sudeste 0 934 0.6 92
2020-01-07 08:00:00 -4.5 2 Oeste 5 Sudeste 0 933.5 -0.3 94
2020-01-07 07:00:00 -3.8 0 Calma 8 Noroeste 0 933.4 -0.4 94
2020-01-07 06:00:00 -3.7 3 Sur 8 Sudoeste 0 933.4 0 94
2020-01-07 05:00:00 -2.8 3 Oeste 8 Oeste 0 933.8 0.3 95
2020-01-07 04:00:00 -2.4 3 Sudoeste 7 Noroeste 0 933.8 0.1 95
2020-01-07 03:00:00 -2.2 3 Sudoeste 7 Nordeste 0 933.4 -0.2 95
2020-01-07 02:00:00 -2.1 2 Sur 8 Sudeste 0 933.5 0.4 95
2020-01-07 01:00:00 -1.7 3 Sur 8 Sudeste 0 933.7 0.9 95
2020-01-07 00:00:00 -1.4 5 Nordeste 12 Nordeste 0 933.6 1.4 94
2020-01-06 23:00:00 -1.3 4 Sur 8 Sudeste 0 933.1 0.8 94
2020-01-06 22:00:00 -1 4 Sudeste 7 Sudeste 0 932.8 1.3 94
2020-01-06 21:00:00 -0.7 0 Calma 10 Sudeste 0 932.2 1.3 93
2020-01-06 20:00:00 -0.1 4 Este 10 Este 0 932.3 2.2 92
2020-01-06 19:00:00 0.8 3 Nordeste 8 Nordeste 0 931.5 1.7 91
2020-01-06 18:00:00 1.4 3 Nordeste 12 Norte 0 930.9 0.9 86
2020-01-06 17:00:00 3.3 5 Norte 9 Norte 0 930.1 -0.2 78
2020-01-06 16:00:00 3.6 4 Nordeste 11 Nordeste 0 929.8 -1.1 77
2020-01-06 15:00:00 3.2 6 Norte 15 Norte 0 930 -1.3 79
2020-01-06 14:00:00 2.9 4 Nordeste 10 Norte 0 930.3 -1.1 77
2020-01-06 13:00:00 2.5 4 Nordeste 9 Norte 0 930.9 -0.2 77
2020-01-06 12:00:00 0.8 4 Norte 12 Noroeste 0 931.3 0.6 81
2020-01-06 11:00:00 -2.1 6 Norte 14 Noroeste 0 931.4 1.4 86
2020-01-06 10:00:00 -5.7 5 Sudeste 9 Sudeste 0 931.1 1.4 93